createdAt,value
2023-02-19T00:01:14.310Z,23.15
2023-02-19T00:03:41.905Z,31.33
2023-02-19T00:06:10.833Z,27.55
2023-02-19T00:08:38.819Z,22.55
2023-02-19T00:11:12.154Z,23.83
2023-02-19T00:13:42.541Z,23.80
2023-02-19T00:16:11.064Z,22.03
2023-02-19T00:18:37.720Z,25.35
2023-02-19T00:21:04.686Z,22.60
2023-02-19T00:23:32.416Z,25.45
2023-02-19T00:26:17.749Z,27.27
2023-02-19T00:28:46.849Z,22.73
2023-02-19T00:31:34.008Z,23.05
2023-02-19T00:34:03.880Z,21.42
2023-02-19T00:36:31.613Z,18.00
2023-02-19T00:38:58.510Z,23.05
2023-02-19T00:41:25.637Z,17.30
2023-02-19T00:43:59.872Z,28.40
2023-02-19T00:46:33.050Z,18.90
2023-02-19T00:49:00.289Z,22.20
2023-02-19T00:51:30.276Z,20.30
2023-02-19T00:53:57.545Z,27.17
2023-02-19T00:56:24.488Z,23.15
2023-02-19T00:58:51.359Z,21.38
2023-02-19T01:01:18.726Z,27.30
2023-02-19T01:03:46.733Z,23.58
2023-02-19T01:06:15.902Z,22.97
2023-02-19T01:08:43.051Z,28.52
2023-02-19T01:11:11.110Z,26.35
2023-02-19T01:13:39.059Z,28.92
2023-02-19T01:16:15.164Z,28.98
2023-02-19T01:18:42.106Z,30.50
2023-02-19T01:21:12.891Z,27.88
2023-02-19T01:23:39.734Z,29.92
2023-02-19T01:26:08.069Z,25.52
2023-02-19T01:28:35.586Z,22.98
2023-02-19T01:31:07.863Z,20.87
2023-02-19T01:33:35.194Z,22.92
2023-02-19T01:36:06.735Z,25.40
2023-02-19T01:38:33.590Z,27.55
2023-02-19T01:41:03.053Z,18.15
2023-02-19T01:43:31.420Z,31.93
2023-02-19T01:45:58.053Z,20.10
2023-02-19T01:48:31.776Z,25.50
2023-02-19T01:51:07.146Z,27.60
2023-02-19T01:53:38.286Z,30.20
2023-02-19T01:56:06.474Z,32.50
2023-02-19T01:58:35.377Z,20.77
2023-02-19T02:01:05.872Z,22.38
2023-02-19T02:03:34.110Z,22.02
2023-02-19T02:06:23.053Z,22.63
2023-02-19T02:09:13.859Z,21.97
2023-02-19T02:11:45.734Z,23.95
2023-02-19T02:14:12.934Z,27.80
2023-02-19T02:17:11.826Z,19.30
2023-02-19T02:20:01.267Z,23.08
2023-02-19T02:22:38.363Z,22.47
2023-02-19T02:25:10.895Z,18.77
2023-02-19T02:27:52.563Z,26.05
2023-02-19T02:30:43.394Z,26.15
2023-02-19T02:33:17.607Z,20.15
2023-02-19T02:35:56.415Z,22.67
2023-02-19T02:38:28.306Z,19.85
2023-02-19T02:40:56.146Z,16.40
2023-02-19T02:43:23.416Z,21.15
2023-02-19T02:45:50.093Z,24.10
2023-02-19T02:48:34.953Z,23.50
2023-02-19T02:51:26.663Z,19.05
2023-02-19T02:54:25.108Z,20.13
2023-02-19T02:56:52.809Z,23.17
2023-02-19T02:59:23.353Z,22.10
2023-02-19T03:02:12.227Z,17.20
2023-02-19T03:05:06.383Z,19.05
2023-02-19T03:07:47.146Z,20.30
2023-02-19T03:10:18.010Z,14.48
2023-02-19T03:13:04.245Z,21.05
2023-02-19T03:15:58.298Z,23.07
2023-02-19T03:18:45.668Z,21.27
2023-02-19T03:21:15.675Z,22.10
2023-02-19T03:24:22.057Z,21.55
2023-02-19T03:26:53.858Z,21.10
2023-02-19T03:29:26.321Z,17.77
2023-02-19T03:31:57.648Z,16.05
2023-02-19T03:34:36.548Z,15.35
2023-02-19T03:37:18.318Z,22.05
2023-02-19T03:39:45.334Z,14.48
2023-02-19T03:42:40.324Z,20.83
2023-02-19T03:45:20.257Z,17.50
2023-02-19T03:48:01.648Z,19.67
2023-02-19T03:50:34.802Z,15.77
2023-02-19T03:53:26.485Z,17.63
2023-02-19T03:56:11.537Z,18.93
2023-02-19T03:58:42.147Z,21.00
2023-02-19T04:01:26.880Z,16.42
2023-02-19T04:04:11.860Z,21.35
2023-02-19T04:06:42.027Z,18.55
2023-02-19T04:09:12.302Z,17.90
2023-02-19T04:11:39.616Z,20.02
2023-02-19T04:14:20.796Z,24.55
2023-02-19T04:16:53.290Z,21.20
2023-02-19T04:19:23.549Z,21.88
2023-02-19T04:21:51.978Z,16.47
2023-02-19T04:24:42.714Z,20.45
2023-02-19T04:27:10.054Z,14.45
2023-02-19T04:29:39.096Z,17.45
2023-02-19T04:32:06.174Z,20.45
2023-02-19T04:34:33.061Z,18.10
2023-02-19T04:36:59.648Z,17.95
2023-02-19T04:39:26.237Z,15.45
2023-02-19T04:41:52.869Z,23.58
2023-02-19T04:44:19.583Z,21.02
2023-02-19T04:46:46.336Z,23.33
2023-02-19T04:49:13.233Z,25.13
2023-02-19T04:51:40.762Z,19.95
2023-02-19T04:54:08.296Z,15.15
2023-02-19T04:56:34.920Z,17.98
2023-02-19T04:59:01.668Z,14.73
2023-02-19T05:01:28.709Z,21.63
2023-02-19T05:03:55.275Z,21.27
2023-02-19T05:06:21.885Z,24.40
2023-02-19T05:08:48.735Z,17.38
2023-02-19T05:11:15.342Z,12.77
2023-02-19T05:13:42.021Z,14.85
2023-02-19T05:16:15.929Z,22.65
2023-02-19T05:18:44.005Z,23.30
2023-02-19T05:21:11.651Z,19.75
2023-02-19T05:23:39.053Z,19.93
2023-02-19T05:26:07.349Z,20.63
2023-02-19T05:28:34.605Z,12.20
2023-02-19T05:31:06.768Z,15.85
2023-02-19T05:33:33.925Z,26.35
2023-02-19T05:36:08.603Z,28.67
2023-02-19T05:38:36.158Z,19.55
2023-02-19T05:41:16.082Z,25.23
2023-02-19T05:43:44.056Z,19.55
2023-02-19T05:46:13.368Z,15.68
2023-02-19T05:48:40.174Z,24.73
2023-02-19T05:51:09.567Z,22.00
2023-02-19T05:53:37.365Z,22.10
2023-02-19T05:56:04.396Z,20.73
2023-02-19T05:58:31.213Z,14.93
2023-02-19T06:00:57.853Z,19.83
2023-02-19T06:03:24.985Z,21.13
2023-02-19T06:05:51.612Z,26.08
2023-02-19T06:08:18.236Z,16.15
2023-02-19T06:10:44.907Z,15.63
2023-02-19T06:13:11.658Z,16.70
2023-02-19T06:15:38.307Z,20.85
2023-02-19T06:18:05.204Z,20.70
2023-02-19T06:20:32.976Z,20.98
2023-02-19T06:22:59.739Z,18.67
2023-02-19T06:25:26.345Z,17.07
2023-02-19T06:27:53.583Z,19.90
2023-02-19T06:30:20.389Z,14.48
2023-02-19T06:32:47.140Z,19.35
2023-02-19T06:35:13.809Z,15.43
2023-02-19T06:37:40.467Z,12.90
2023-02-19T06:40:07.976Z,15.25
2023-02-19T06:42:34.567Z,16.40
2023-02-19T06:45:01.229Z,16.30
2023-02-19T06:47:31.927Z,15.13
2023-02-19T06:49:59.258Z,16.47
2023-02-19T06:52:27.478Z,13.18
2023-02-19T06:54:54.128Z,15.00
2023-02-19T06:57:20.727Z,15.55
2023-02-19T06:59:47.322Z,16.42
2023-02-19T07:02:13.922Z,17.57
2023-02-19T07:04:40.523Z,15.18
2023-02-19T07:07:07.092Z,17.55
2023-02-19T07:09:33.646Z,21.52
2023-02-19T07:12:00.240Z,17.73
2023-02-19T07:14:26.956Z,25.43
2023-02-19T07:16:53.597Z,23.50
2023-02-19T07:19:20.269Z,29.75
2023-02-19T07:21:46.996Z,22.25
2023-02-19T07:24:13.752Z,26.02
2023-02-19T07:26:40.365Z,21.90
2023-02-19T07:29:07.505Z,29.10
2023-02-19T07:31:34.199Z,32.25
2023-02-19T07:34:00.865Z,23.48
2023-02-19T07:36:27.454Z,27.90
2023-02-19T07:38:58.468Z,23.77
2023-02-19T07:41:26.052Z,27.40
2023-02-19T07:43:54.369Z,26.30
2023-02-19T07:46:21.968Z,25.65
2023-02-19T07:48:48.640Z,30.67
2023-02-19T07:51:18.965Z,35.13
2023-02-19T07:53:46.661Z,29.60
2023-02-19T07:56:13.767Z,27.73
2023-02-19T07:58:40.573Z,28.50
2023-02-19T08:01:14.026Z,28.63
2023-02-19T08:03:41.288Z,31.57
2023-02-19T08:06:08.406Z,29.95
2023-02-19T08:08:35.004Z,27.35
2023-02-19T08:11:21.699Z,29.42
2023-02-19T08:13:50.253Z,27.80
2023-02-19T08:16:29.663Z,27.00
2023-02-19T08:19:00.107Z,32.08
2023-02-19T08:21:26.716Z,28.98
2023-02-19T08:23:54.388Z,27.20
2023-02-19T08:26:21.007Z,27.20
2023-02-19T08:28:48.729Z,19.87
2023-02-19T08:31:15.602Z,28.88
2023-02-19T08:33:42.472Z,25.65
2023-02-19T08:36:10.965Z,25.52
2023-02-19T08:38:38.247Z,25.77
2023-02-19T08:41:07.302Z,23.13
2023-02-19T08:43:34.003Z,27.63
2023-02-19T08:46:00.681Z,22.52
2023-02-19T08:48:27.673Z,29.02
2023-02-19T08:50:59.704Z,25.30
2023-02-19T08:53:26.965Z,32.70
2023-02-19T08:55:53.928Z,24.80
2023-02-19T08:58:20.625Z,26.30
2023-02-19T09:00:47.692Z,33.25
2023-02-19T09:03:14.321Z,26.27
2023-02-19T09:05:41.720Z,27.60
2023-02-19T09:08:09.283Z,27.48
2023-02-19T09:10:35.905Z,28.77
2023-02-19T09:13:02.623Z,25.48
2023-02-19T09:15:29.727Z,26.80
2023-02-19T09:17:56.675Z,19.30
2023-02-19T09:20:23.374Z,25.58
2023-02-19T09:22:49.985Z,21.27
2023-02-19T09:25:16.684Z,24.10
2023-02-19T09:27:43.419Z,27.42
2023-02-19T09:30:10.505Z,24.50
2023-02-19T09:32:37.108Z,18.60
2023-02-19T09:35:03.886Z,21.13
2023-02-19T09:37:32.039Z,22.58
2023-02-19T09:39:59.724Z,18.00
2023-02-19T09:42:30.675Z,14.87
2023-02-19T09:45:00.704Z,14.73
2023-02-19T09:47:30.214Z,16.50
2023-02-19T09:50:02.497Z,20.15
2023-02-19T09:52:56.124Z,18.58
2023-02-19T09:55:22.699Z,13.83
2023-02-19T09:57:52.036Z,13.05
2023-02-19T10:00:25.659Z,14.77
2023-02-19T10:02:54.927Z,16.95
2023-02-19T10:05:23.440Z,12.10
2023-02-19T10:07:53.557Z,13.13
2023-02-19T10:10:28.930Z,13.38
2023-02-19T10:13:00.396Z,6.22
2023-02-19T10:15:34.537Z,4.70
2023-02-19T10:18:01.916Z,3.72
2023-02-19T10:20:28.548Z,4.67
2023-02-19T10:23:02.821Z,4.90
2023-02-19T10:25:31.590Z,4.53
2023-02-19T10:27:59.907Z,5.13
2023-02-19T10:30:31.406Z,4.00
2023-02-19T10:33:02.293Z,3.27
2023-02-19T10:35:30.063Z,4.57
2023-02-19T10:37:57.577Z,3.80
2023-02-19T10:40:28.240Z,3.72
2023-02-19T10:43:01.619Z,4.85
2023-02-19T10:45:47.822Z,4.57
2023-02-19T10:48:28.188Z,6.85
2023-02-19T10:50:59.873Z,3.90
2023-02-19T10:53:43.272Z,4.95
2023-02-19T10:56:25.034Z,3.97
2023-02-19T10:58:51.972Z,4.77
2023-02-19T11:01:20.009Z,5.38
2023-02-19T11:03:48.914Z,3.35
2023-02-19T11:06:18.521Z,6.38
2023-02-19T11:08:48.561Z,5.22
2023-02-19T11:11:36.190Z,7.13
2023-02-19T11:14:18.438Z,3.63
2023-02-19T11:16:57.308Z,4.95
2023-02-19T11:19:39.525Z,4.93
2023-02-19T11:22:40.107Z,4.07
2023-02-19T11:25:14.560Z,6.17
2023-02-19T11:27:55.550Z,6.22
2023-02-19T11:30:32.318Z,5.45
2023-02-19T11:33:24.761Z,4.38
2023-02-19T11:35:57.990Z,4.53
2023-02-19T11:38:24.640Z,3.93
2023-02-19T11:41:10.452Z,3.72
2023-02-19T11:44:06.833Z,3.88
2023-02-19T11:46:36.226Z,4.72
2023-02-19T11:49:35.445Z,5.88
2023-02-19T11:52:19.330Z,3.73
2023-02-19T11:54:54.509Z,3.67
2023-02-19T11:57:44.097Z,4.43
2023-02-19T12:00:30.924Z,6.50
2023-02-19T12:03:20.054Z,5.63
2023-02-19T12:06:15.501Z,4.47
2023-02-19T12:09:04.284Z,4.57
2023-02-19T12:11:53.542Z,7.63
2023-02-19T12:14:50.324Z,6.35
2023-02-19T12:17:28.579Z,3.88
2023-02-19T12:20:22.840Z,4.10
2023-02-19T12:23:09.490Z,3.30
2023-02-19T12:25:48.293Z,4.07
2023-02-19T12:28:29.597Z,3.00
2023-02-19T12:31:35.030Z,3.10
2023-02-19T12:34:22.390Z,2.60
2023-02-19T12:37:09.616Z,2.20
2023-02-19T12:39:45.697Z,2.30
2023-02-19T12:42:50.730Z,3.17
2023-02-19T12:45:45.040Z,3.22
2023-02-19T12:48:14.808Z,3.43
2023-02-19T12:50:44.087Z,4.18
2023-02-19T12:53:52.467Z,3.40
2023-02-19T12:56:24.960Z,3.33
2023-02-19T12:58:58.636Z,2.45
2023-02-19T13:01:35.222Z,3.17
2023-02-19T13:04:19.325Z,5.63
2023-02-19T13:06:59.900Z,3.47
2023-02-19T13:09:46.821Z,3.33
2023-02-19T13:12:34.684Z,3.05
2023-02-19T13:15:07.446Z,5.57
2023-02-19T13:17:49.281Z,4.88
2023-02-19T13:20:39.900Z,6.20
2023-02-19T13:23:54.633Z,6.05
2023-02-19T13:26:42.712Z,3.70
2023-02-19T13:29:34.241Z,5.03
2023-02-19T13:32:14.934Z,3.63
2023-02-19T13:35:14.336Z,3.80
2023-02-19T13:37:41.557Z,3.72
2023-02-19T13:40:31.294Z,4.72
2023-02-19T13:43:01.013Z,3.77
2023-02-19T13:45:41.388Z,6.35
2023-02-19T13:48:26.448Z,5.80
2023-02-19T13:51:16.246Z,4.78
2023-02-19T13:53:45.665Z,13.32
2023-02-19T13:56:31.353Z,7.73
2023-02-19T13:59:40.324Z,4.97
2023-02-19T14:02:18.387Z,3.40
2023-02-19T14:05:00.074Z,3.15
2023-02-19T14:07:26.696Z,7.20
2023-02-19T14:09:54.233Z,3.67
2023-02-19T14:12:30.349Z,2.22
2023-02-19T14:14:57.195Z,3.25
2023-02-19T14:17:35.413Z,4.53
2023-02-19T14:20:09.962Z,3.85
2023-02-19T14:22:57.758Z,2.27
2023-02-19T14:25:30.202Z,7.07
2023-02-19T14:28:15.009Z,4.40
2023-02-19T14:30:58.258Z,3.10
2023-02-19T14:33:28.137Z,5.43
2023-02-19T14:36:16.294Z,3.40
2023-02-19T14:38:50.455Z,2.95
2023-02-19T14:41:17.984Z,2.88
2023-02-19T14:43:48.383Z,3.33
2023-02-19T14:46:39.257Z,1.58
2023-02-19T14:49:23.222Z,3.43
2023-02-19T14:51:55.072Z,5.28
2023-02-19T14:54:37.733Z,1.73
2023-02-19T14:57:07.887Z,4.25
2023-02-19T14:59:34.594Z,3.33
2023-02-19T15:02:13.090Z,3.27
2023-02-19T15:04:40.247Z,3.72
2023-02-19T15:07:11.133Z,3.63
2023-02-19T15:09:41.912Z,3.35
2023-02-19T15:12:16.104Z,3.03
2023-02-19T15:14:44.048Z,3.33
2023-02-19T15:17:17.788Z,4.03
2023-02-19T15:19:44.489Z,3.53
2023-02-19T15:22:21.565Z,2.17
2023-02-19T15:24:48.810Z,2.22
2023-02-19T15:27:21.336Z,3.13
2023-02-19T15:29:51.324Z,2.63
2023-02-19T15:32:26.260Z,2.35
2023-02-19T15:35:01.072Z,1.60
2023-02-19T15:37:33.701Z,3.70
2023-02-19T15:40:07.517Z,4.17
2023-02-19T15:42:35.787Z,1.80
2023-02-19T15:45:08.275Z,3.42
2023-02-19T15:47:37.903Z,2.35
2023-02-19T15:50:13.544Z,3.40
2023-02-19T15:52:43.732Z,2.00
2023-02-19T15:55:44.389Z,5.75
2023-02-19T15:58:13.974Z,5.68
2023-02-19T16:00:52.533Z,2.88
2023-02-19T16:03:24.731Z,2.10
2023-02-19T16:06:00.298Z,2.47
2023-02-19T16:08:33.121Z,3.90
2023-02-19T16:11:02.725Z,1.83
2023-02-19T16:13:31.936Z,1.63
2023-02-19T16:16:20.234Z,3.80
2023-02-19T16:18:49.002Z,2.80
2023-02-19T16:21:20.013Z,2.13
2023-02-19T16:23:49.204Z,2.95
2023-02-19T16:26:16.058Z,1.98
2023-02-19T16:28:42.778Z,4.65
2023-02-19T16:31:12.386Z,3.87
2023-02-19T16:33:49.773Z,2.20
2023-02-19T16:36:21.034Z,3.92
2023-02-19T16:39:06.831Z,3.40
2023-02-19T16:41:59.390Z,3.72
2023-02-19T16:44:27.349Z,2.47
2023-02-19T16:46:57.621Z,2.60
2023-02-19T16:49:24.813Z,5.07
2023-02-19T16:51:51.734Z,4.20
2023-02-19T16:54:18.357Z,4.78
2023-02-19T16:56:44.970Z,4.20
2023-02-19T16:59:11.608Z,5.82
2023-02-19T17:01:38.690Z,5.88
2023-02-19T17:04:08.816Z,4.90
2023-02-19T17:06:37.741Z,3.97
2023-02-19T17:09:06.594Z,3.60
2023-02-19T17:11:33.249Z,3.45
2023-02-19T17:13:59.901Z,3.72
2023-02-19T17:16:31.649Z,3.80
2023-02-19T17:18:58.812Z,4.00
2023-02-19T17:21:28.451Z,3.93
2023-02-19T17:23:56.969Z,2.45
2023-02-19T17:26:27.837Z,4.00
2023-02-19T17:28:56.696Z,3.05
2023-02-19T17:31:23.461Z,9.75
2023-02-19T17:33:51.018Z,4.13
2023-02-19T17:36:20.826Z,2.70
2023-02-19T17:38:47.622Z,5.72
2023-02-19T17:41:14.247Z,2.72
2023-02-19T17:43:40.958Z,4.68
2023-02-19T17:46:09.660Z,3.13
2023-02-19T17:48:36.276Z,3.10
2023-02-19T17:51:02.935Z,5.82
2023-02-19T17:53:29.504Z,2.55
2023-02-19T17:55:56.119Z,4.82
2023-02-19T17:58:22.911Z,2.60
2023-02-19T18:00:49.504Z,3.15
2023-02-19T18:03:16.108Z,3.45
2023-02-19T18:05:42.903Z,3.78
2023-02-19T18:08:09.753Z,3.78
2023-02-19T18:10:36.971Z,3.07
2023-02-19T18:13:03.661Z,6.03
2023-02-19T18:15:30.340Z,3.80
2023-02-19T18:17:57.204Z,3.03
2023-02-19T18:20:26.172Z,3.20
2023-02-19T18:22:54.147Z,2.00
2023-02-19T18:25:22.150Z,2.53
2023-02-19T18:27:49.293Z,4.00
2023-02-19T18:30:19.004Z,2.15
2023-02-19T18:32:49.594Z,1.65
2023-02-19T18:35:20.900Z,2.90
2023-02-19T18:37:52.856Z,2.20
2023-02-19T18:40:25.809Z,5.93
2023-02-19T18:42:52.913Z,2.92
2023-02-19T18:45:19.971Z,1.90
2023-02-19T18:47:50.443Z,1.93
2023-02-19T18:50:18.825Z,2.65
2023-02-19T18:52:45.495Z,3.17
2023-02-19T18:55:12.698Z,2.25
2023-02-19T18:57:39.269Z,3.85
2023-02-19T19:00:07.557Z,2.53
2023-02-19T19:02:48.272Z,3.03
2023-02-19T19:05:18.393Z,3.17
2023-02-19T19:07:46.774Z,2.65
2023-02-19T19:10:16.961Z,1.60
2023-02-19T19:12:43.550Z,3.63
2023-02-19T19:15:10.239Z,3.03
2023-02-19T19:17:36.946Z,4.88
2023-02-19T19:20:03.806Z,3.42
2023-02-19T19:22:30.496Z,3.35
2023-02-19T19:24:57.132Z,3.67
2023-02-19T19:27:23.771Z,2.97
2023-02-19T19:29:50.400Z,5.32
2023-02-19T19:32:17.131Z,4.60
2023-02-19T19:34:44.041Z,4.97
2023-02-19T19:37:10.840Z,4.03
2023-02-19T19:39:37.544Z,3.38
2023-02-19T19:42:04.605Z,3.55
2023-02-19T19:44:31.209Z,4.93
2023-02-19T19:46:57.948Z,3.65
2023-02-19T19:49:24.675Z,2.77
2023-02-19T19:51:51.320Z,4.30
2023-02-19T19:54:17.904Z,2.92
2023-02-19T19:56:46.794Z,4.82
2023-02-19T19:59:15.100Z,3.78
2023-02-19T20:01:51.920Z,3.63
2023-02-19T20:04:19.808Z,3.05
2023-02-19T20:06:46.490Z,3.00
2023-02-19T20:09:13.444Z,4.85
2023-02-19T20:11:47.220Z,6.85
2023-02-19T20:14:14.209Z,4.60
2023-02-19T20:16:43.196Z,4.55
2023-02-19T20:19:11.142Z,4.32
2023-02-19T20:21:37.787Z,4.85
2023-02-19T20:24:04.719Z,4.03
2023-02-19T20:26:32.156Z,5.77
2023-02-19T20:28:58.913Z,6.80
2023-02-19T20:31:26.100Z,5.03
2023-02-19T20:33:52.970Z,6.97
2023-02-19T20:36:20.174Z,4.55
2023-02-19T20:38:49.199Z,4.03
2023-02-19T20:41:15.794Z,4.47
2023-02-19T20:43:42.372Z,5.82
2023-02-19T20:46:09.020Z,8.30
2023-02-19T20:48:35.692Z,8.98
2023-02-19T20:51:02.611Z,5.80
2023-02-19T20:53:30.125Z,9.07
2023-02-19T20:55:56.913Z,7.22
2023-02-19T20:58:24.456Z,6.70
2023-02-19T21:00:53.378Z,10.30
2023-02-19T21:03:21.278Z,7.40
2023-02-19T21:05:48.017Z,5.82
2023-02-19T21:08:17.163Z,5.40
2023-02-19T21:10:45.432Z,9.82
2023-02-19T21:13:12.692Z,7.20
2023-02-19T21:15:39.281Z,7.80
2023-02-19T21:18:06.006Z,6.40
2023-02-19T21:20:32.749Z,8.20
2023-02-19T21:22:59.453Z,6.50
2023-02-19T21:25:26.000Z,6.10
2023-02-19T21:27:52.625Z,7.97
2023-02-19T21:30:19.350Z,6.28
2023-02-19T21:32:46.001Z,7.85
2023-02-19T21:35:12.571Z,9.93
2023-02-19T21:37:42.800Z,9.38
2023-02-19T21:40:10.603Z,8.27
2023-02-19T21:42:37.200Z,7.00
2023-02-19T21:45:04.297Z,9.15
2023-02-19T21:47:30.880Z,8.85
2023-02-19T21:49:57.427Z,8.13
2023-02-19T21:52:24.049Z,6.83
2023-02-19T21:54:50.706Z,8.35
2023-02-19T21:57:17.281Z,7.95
2023-02-19T21:59:43.900Z,9.23
2023-02-19T22:02:10.616Z,6.60
2023-02-19T22:04:37.243Z,6.50
2023-02-19T22:07:03.936Z,8.95
2023-02-19T22:09:30.557Z,10.50
2023-02-19T22:11:57.149Z,8.65
2023-02-19T22:14:23.755Z,7.68
2023-02-19T22:16:50.482Z,8.80
2023-02-19T22:19:17.177Z,11.75
2023-02-19T22:21:44.846Z,8.57
2023-02-19T22:24:17.533Z,10.60
2023-02-19T22:26:45.531Z,8.75
2023-02-19T22:29:14.393Z,7.67
2023-02-19T22:31:41.432Z,7.85
2023-02-19T22:34:08.960Z,9.68
2023-02-19T22:36:39.774Z,10.00
2023-02-19T22:39:09.247Z,11.05
2023-02-19T22:41:36.008Z,10.60
2023-02-19T22:44:02.581Z,11.23
2023-02-19T22:46:31.072Z,8.82
2023-02-19T22:48:58.551Z,10.60
2023-02-19T22:51:25.618Z,7.88
2023-02-19T22:53:54.494Z,10.90
2023-02-19T22:56:23.735Z,9.95
2023-02-19T22:58:51.172Z,9.32
2023-02-19T23:01:18.807Z,17.08
2023-02-19T23:03:46.954Z,11.50
2023-02-19T23:06:14.410Z,13.70
2023-02-19T23:08:42.405Z,8.38
2023-02-19T23:11:13.112Z,10.88
2023-02-19T23:13:42.624Z,9.93
2023-02-19T23:16:09.456Z,14.73
2023-02-19T23:18:36.186Z,10.13
2023-02-19T23:21:02.802Z,13.60
2023-02-19T23:23:29.440Z,10.65
2023-02-19T23:25:56.091Z,15.93
2023-02-19T23:28:22.913Z,12.65
2023-02-19T23:30:49.678Z,11.77
2023-02-19T23:33:16.701Z,14.23
2023-02-19T23:35:43.430Z,12.20
2023-02-19T23:38:10.104Z,16.15
2023-02-19T23:40:36.768Z,12.52
2023-02-19T23:43:03.707Z,16.30
2023-02-19T23:45:30.335Z,18.73
2023-02-19T23:47:57.072Z,14.77
2023-02-19T23:50:23.681Z,15.88
2023-02-19T23:52:50.542Z,16.98
2023-02-19T23:55:17.229Z,14.53
2023-02-19T23:57:43.865Z,17.55
